Time;durP1;ratioP1;P1;durP2;ratioP2;P2;SDS_P1;SDS_P2;PMS_P1;PMS_P2;Temp;Humidity;BMP_temperature;BMP_pressure;BME280_temperature;BME280_humidity;BME280_pressure;Samples;Min_cycle;Max_cycle;Signal;HPM_P1;HPM_P2
2022/10/04 00:00:26;;;;;;;;;;;8.20;99.90;;;;;;4213153;28;19919;-60
2022/10/04 00:02:30;;;;;;;;;;;8.30;99.90;;;;;;4220709;28;19957;-58
2022/10/04 00:04:33;;;;;;;;;;;8.30;99.90;;;;;;4225868;28;20364;-62
2022/10/04 00:06:35;;;;;;;;;;;8.20;99.90;;;;;;4229043;28;20400;-61
2022/10/04 00:08:36;;;;;;;;;;;8.30;99.90;;;;;;4227330;28;19941;-61
2022/10/04 00:10:37;;;;;;;;;;;8.30;99.90;;;;;;4229457;28;19908;-60
2022/10/04 00:12:44;;;;;;;;;;;8.30;99.90;;;;;;4227343;28;19941;-61
2022/10/04 00:14:45;;;;;;;;;;;8.30;99.90;;;;;;4229071;28;19961;-62
2022/10/04 00:16:46;;;;;;;;;;;8.30;99.90;;;;;;4216467;28;20388;-61
2022/10/04 00:18:47;;;;;;;;;;;8.20;99.90;;;;;;4211568;28;19937;-61
2022/10/04 00:20:49;;;;;;;;;;;8.20;99.90;;;;;;4210704;28;19951;-62
2022/10/04 00:23:09;;;;;;;;;;;8.20;99.90;;;;;;4212028;28;19912;-61
2022/10/04 00:25:12;;;;;;;;;;;8.20;99.90;;;;;;4211088;28;19915;-61
2022/10/04 00:27:24;;;;;;;;;;;8.20;99.90;;;;;;4212029;28;19912;-61
2022/10/04 00:29:25;;;;;;;;;;;8.20;99.90;;;;;;4210883;28;19912;-60
2022/10/04 00:31:26;;;;;;;;;;;8.30;99.90;;;;;;4211896;28;19912;-61
2022/10/04 00:33:33;;;;;;;;;;;8.30;99.90;;;;;;4210623;28;20310;-60
2022/10/04 00:35:34;;;;;;;;;;;8.30;99.90;;;;;;4211687;28;19919;-61
2022/10/04 00:37:54;;;;;;;;;;;8.30;99.90;;;;;;4217296;28;19912;-61
2022/10/04 00:40:02;;;;;;;;;;;8.30;99.90;;;;;;4228673;28;20693;-61
2022/10/04 00:42:05;;;;;;;;;;;8.30;99.90;;;;;;4227889;28;20257;-60
2022/10/04 00:44:11;;;;;;;;;;;8.40;99.90;;;;;;4226298;28;19916;-59
2022/10/04 00:46:17;;;;;;;;;;;8.40;99.90;;;;;;4227862;28;19907;-60
2022/10/04 00:48:21;;;;;;;;;;;8.40;99.90;;;;;;4242713;28;19911;-60
2022/10/04 00:50:40;;;;;;;;;;;8.40;99.90;;;;;;4230665;28;19911;-61
2022/10/04 00:52:42;;;;;;;;;;;8.40;99.90;;;;;;4219824;28;19912;-61
2022/10/04 00:54:49;;;;;;;;;;;8.40;99.90;;;;;;4214318;28;20326;-59
2022/10/04 00:56:52;;;;;;;;;;;8.30;99.90;;;;;;4230725;28;19973;-60
2022/10/04 00:58:53;;;;;;;;;;;8.30;99.90;;;;;;4229413;28;19919;-60
2022/10/04 01:00:56;;;;;;;;;;;8.30;99.90;;;;;;4226837;28;20030;-60
2022/10/04 01:03:01;;;;;;;;;;;8.30;99.90;;;;;;4231378;28;19961;-60
2022/10/04 01:05:02;;;;;;;;;;;8.30;99.90;;;;;;4230203;28;20709;-60
2022/10/04 01:07:04;;;;;;;;;;;8.30;99.90;;;;;;4218069;28;19915;-60
2022/10/04 01:09:06;;;;;;;;;;;8.30;99.90;;;;;;4213683;28;20425;-62
2022/10/04 01:11:33;;;;;;;;;;;8.30;99.90;;;;;;4215057;28;19908;-59
2022/10/04 01:13:34;;;;;;;;;;;8.30;99.90;;;;;;4210474;28;19916;-61
2022/10/04 01:15:41;;;;;;;;;;;8.30;99.90;;;;;;4214532;28;20268;-60
2022/10/04 01:18:02;;;;;;;;;;;8.30;99.90;;;;;;4213400;28;19957;-61
2022/10/04 01:20:22;;;;;;;;;;;8.20;99.90;;;;;;4214589;28;19934;-59
2022/10/04 01:22:28;;;;;;;;;;;8.30;99.90;;;;;;4214517;28;19961;-60
2022/10/04 01:24:34;;;;;;;;;;;8.30;99.90;;;;;;4214528;28;19961;-60
2022/10/04 01:26:35;;;;;;;;;;;8.30;99.90;;;;;;4213345;28;20009;-60
2022/10/04 01:28:37;;;;;;;;;;;8.30;99.90;;;;;;4229547;28;19912;-60
2022/10/04 01:30:38;;;;;;;;;;;8.30;99.90;;;;;;4213393;28;19941;-62
2022/10/04 01:32:39;;;;;;;;;;;8.30;99.90;;;;;;4217420;28;19916;-61
2022/10/04 01:34:40;;;;;;;;;;;8.30;99.90;;;;;;4229685;27;19937;-60
2022/10/04 01:36:43;;;;;;;;;;;8.30;99.90;;;;;;4231284;28;19915;-61
2022/10/04 01:38:44;;;;;;;;;;;8.30;99.90;;;;;;4230175;28;19916;-60
2022/10/04 01:40:47;;;;;;;;;;;8.30;99.90;;;;;;4231646;28;19912;-61
2022/10/04 01:42:50;;;;;;;;;;;8.30;99.90;;;;;;4229721;28;19912;-63
2022/10/04 01:45:02;;;;;;;;;;;8.30;99.90;;;;;;4229212;28;19911;-62
2022/10/04 01:47:05;;;;;;;;;;;8.30;99.90;;;;;;4229819;28;20028;-61
2022/10/04 01:49:09;;;;;;;;;;;8.30;99.90;;;;;;4230871;28;19994;-60
2022/10/04 01:51:17;;;;;;;;;;;8.30;99.90;;;;;;4222728;28;19961;-61
2022/10/04 01:53:23;;;;;;;;;;;8.30;99.90;;;;;;4213938;28;19908;-60
2022/10/04 01:55:26;;;;;;;;;;;8.30;99.90;;;;;;4229843;28;20355;-60
2022/10/04 01:57:54;;;;;;;;;;;8.30;99.90;;;;;;4230240;28;20317;-61
2022/10/04 01:59:59;;;;;;;;;;;8.40;99.90;;;;;;4224702;28;20341;-60
2022/10/04 02:02:09;;;;;;;;;;;8.30;99.90;;;;;;4222353;28;19911;-60
2022/10/04 02:04:14;;;;;;;;;;;8.40;99.90;;;;;;4229582;28;19904;-61
2022/10/04 02:06:15;;;;;;;;;;;8.40;99.90;;;;;;4229954;28;19915;-61
2022/10/04 02:08:20;;;;;;;;;;;8.40;99.90;;;;;;4230048;28;19957;-61
2022/10/04 02:10:22;;;;;;;;;;;8.40;99.90;;;;;;4230194;28;20348;-61
2022/10/04 02:12:23;;;;;;;;;;;8.40;99.90;;;;;;4233657;27;19969;-60
2022/10/04 02:14:26;;;;;;;;;;;8.50;99.90;;;;;;4212789;28;20718;-61
2022/10/04 02:16:27;;;;;;;;;;;8.40;99.90;;;;;;4213172;28;19916;-61
2022/10/04 02:18:29;;;;;;;;;;;8.40;99.90;;;;;;4213444;28;19985;-61
2022/10/04 02:20:30;;;;;;;;;;;8.50;99.90;;;;;;4213651;28;19912;-62
2022/10/04 02:22:31;;;;;;;;;;;8.50;99.90;;;;;;4225268;28;19915;-60
2022/10/04 02:24:33;;;;;;;;;;;8.50;99.90;;;;;;4230200;28;20283;-62
2022/10/04 02:26:34;;;;;;;;;;;8.50;99.90;;;;;;4229139;28;19911;-65
2022/10/04 02:28:35;;;;;;;;;;;8.50;99.90;;;;;;4230272;28;19915;-61
2022/10/04 02:30:37;;;;;;;;;;;8.50;99.90;;;;;;4229185;28;20180;-61
2022/10/04 02:32:59;;;;;;;;;;;8.60;99.90;;;;;;4229768;28;19915;-62
2022/10/04 02:35:00;;;;;;;;;;;8.60;99.90;;;;;;4228831;28;19911;-61
2022/10/04 02:37:04;;;;;;;;;;;8.50;99.90;;;;;;4229891;27;19923;-61
2022/10/04 02:39:12;;;;;;;;;;;8.50;99.90;;;;;;4229059;28;19907;-68
2022/10/04 02:41:23;;;;;;;;;;;8.50;99.90;;;;;;4217965;28;19966;-63
2022/10/04 02:43:44;;;;;;;;;;;8.50;99.90;;;;;;4212180;28;19912;-62
2022/10/04 02:45:49;;;;;;;;;;;8.40;99.90;;;;;;4228401;28;20424;-62
2022/10/04 02:47:53;;;;;;;;;;;8.40;99.90;;;;;;4244121;27;19911;-62
2022/10/04 02:49:59;;;;;;;;;;;8.40;99.90;;;;;;4230062;28;19973;-62
2022/10/04 02:52:11;;;;;;;;;;;8.30;99.90;;;;;;4228312;28;19916;-61
2022/10/04 02:54:26;;;;;;;;;;;8.30;99.90;;;;;;4229999;28;19915;-62
2022/10/04 02:56:27;;;;;;;;;;;8.30;99.90;;;;;;4212192;28;19925;-60
2022/10/04 02:58:29;;;;;;;;;;;8.30;99.90;;;;;;4212787;28;19912;-61
2022/10/04 03:00:30;;;;;;;;;;;8.30;99.90;;;;;;4211661;28;19912;-62
2022/10/04 03:02:31;;;;;;;;;;;8.30;99.90;;;;;;4216574;28;20368;-62
2022/10/04 03:04:36;;;;;;;;;;;8.40;99.90;;;;;;4212250;28;19912;-62
2022/10/04 03:06:38;;;;;;;;;;;8.40;99.90;;;;;;4212085;28;19920;-60
2022/10/04 03:08:50;;;;;;;;;;;8.40;99.90;;;;;;4212393;28;20369;-62
2022/10/04 03:10:51;;;;;;;;;;;8.50;99.90;;;;;;4212565;28;19962;-62
2022/10/04 03:12:52;;;;;;;;;;;8.50;99.90;;;;;;4212748;28;19965;-61
2022/10/04 03:14:53;;;;;;;;;;;8.50;99.90;;;;;;4228205;28;19984;-63
2022/10/04 03:16:56;;;;;;;;;;;8.50;99.90;;;;;;4229034;28;19919;-61
2022/10/04 03:18:57;;;;;;;;;;;8.50;99.90;;;;;;4222449;28;20322;-61
2022/10/04 03:21:00;;;;;;;;;;;8.50;99.90;;;;;;4229127;28;19908;-62
2022/10/04 03:23:02;;;;;;;;;;;8.60;99.90;;;;;;4227887;28;19969;-61
2022/10/04 03:25:03;;;;;;;;;;;8.50;99.90;;;;;;4229354;28;19961;-62
2022/10/04 03:27:06;;;;;;;;;;;8.60;99.90;;;;;;4228228;28;20383;-61
2022/10/04 03:29:09;;;;;;;;;;;8.60;99.90;;;;;;4229306;28;20360;-62
2022/10/04 03:31:10;;;;;;;;;;;8.60;99.90;;;;;;4213583;28;19919;-62
2022/10/04 03:33:18;;;;;;;;;;;8.60;99.90;;;;;;4212372;28;19919;-62
2022/10/04 03:35:25;;;;;;;;;;;8.70;99.90;;;;;;4211238;28;19934;-62
2022/10/04 03:37:28;;;;;;;;;;;8.70;99.90;;;;;;4212372;28;20272;-61
2022/10/04 03:39:42;;;;;;;;;;;8.70;99.90;;;;;;4211462;28;19912;-60
2022/10/04 03:41:43;;;;;;;;;;;8.60;99.90;;;;;;4213056;28;19961;-61
2022/10/04 03:43:45;;;;;;;;;;;8.50;99.90;;;;;;4223149;28;20367;-61
2022/10/04 03:45:46;;;;;;;;;;;8.40;99.90;;;;;;4228423;28;19915;-61
2022/10/04 03:47:49;;;;;;;;;;;8.30;99.90;;;;;;4228206;28;20288;-61
2022/10/04 03:49:51;;;;;;;;;;;8.20;99.90;;;;;;4226321;28;19915;-60
2022/10/04 03:51:52;;;;;;;;;;;8.10;99.90;;;;;;4228178;28;19907;-62
2022/10/04 03:53:55;;;;;;;;;;;8.10;99.90;;;;;;4227763;28;19908;-62
2022/10/04 03:55:57;;;;;;;;;;;8.10;99.90;;;;;;4228545;28;19912;-63
2022/10/04 03:57:58;;;;;;;;;;;8.10;99.90;;;;;;4227025;28;20020;-62
2022/10/04 04:00:00;;;;;;;;;;;8.10;99.90;;;;;;4228422;28;20337;-59
2022/10/04 04:02:05;;;;;;;;;;;8.10;99.90;;;;;;4227106;28;19924;-62
2022/10/04 04:04:06;;;;;;;;;;;8.10;99.90;;;;;;4221502;28;19916;-61
2022/10/04 04:06:13;;;;;;;;;;;8.10;99.90;;;;;;4227562;28;19912;-63
2022/10/04 04:08:23;;;;;;;;;;;8.10;99.90;;;;;;4228723;28;19961;-62
2022/10/04 04:10:29;;;;;;;;;;;8.10;99.90;;;;;;4218828;28;19911;-63
2022/10/04 04:12:38;;;;;;;;;;;8.10;99.90;;;;;;4228977;28;19908;-63
2022/10/04 04:14:40;;;;;;;;;;;8.00;99.90;;;;;;4226907;28;19915;-64
2022/10/04 04:16:41;;;;;;;;;;;8.00;99.90;;;;;;4226172;28;19927;-62
2022/10/04 04:18:42;;;;;;;;;;;8.00;99.90;;;;;;4226056;28;19965;-62
2022/10/04 04:20:44;;;;;;;;;;;8.00;99.90;;;;;;4228039;28;19908;-63
2022/10/04 04:22:49;;;;;;;;;;;8.00;99.90;;;;;;4221997;28;19920;-62
2022/10/04 04:24:51;;;;;;;;;;;8.00;99.90;;;;;;4219612;28;20406;-63
2022/10/04 04:26:54;;;;;;;;;;;8.00;99.90;;;;;;4212297;28;19981;-63
2022/10/04 04:29:01;;;;;;;;;;;8.00;99.90;;;;;;4214387;28;20429;-64
2022/10/04 04:31:09;;;;;;;;;;;8.00;99.90;;;;;;4224354;28;19916;-62
2022/10/04 04:33:14;;;;;;;;;;;8.00;99.90;;;;;;4231260;28;20364;-64
2022/10/04 04:35:23;;;;;;;;;;;8.00;99.90;;;;;;4221305;28;19912;-62
2022/10/04 04:37:24;;;;;;;;;;;7.90;99.90;;;;;;4218742;28;19974;-62
2022/10/04 04:39:38;;;;;;;;;;;7.90;99.90;;;;;;4230558;28;20752;-63
2022/10/04 04:41:39;;;;;;;;;;;7.90;99.90;;;;;;4231240;28;19908;-63
2022/10/04 04:43:42;;;;;;;;;;;7.90;99.90;;;;;;4230263;28;19937;-66
2022/10/04 04:45:44;;;;;;;;;;;7.90;99.90;;;;;;4214636;28;20342;-62
2022/10/04 04:47:46;;;;;;;;;;;7.90;99.90;;;;;;4217850;28;19973;-62
2022/10/04 04:49:48;;;;;;;;;;;8.00;99.90;;;;;;4224290;28;19916;-62
2022/10/04 04:51:50;;;;;;;;;;;8.00;99.90;;;;;;4215120;28;19938;-63
2022/10/04 04:53:53;;;;;;;;;;;8.00;99.90;;;;;;4229909;28;20272;-62
2022/10/04 04:55:54;;;;;;;;;;;8.00;99.90;;;;;;4222476;28;19912;-61
2022/10/04 04:57:56;;;;;;;;;;;8.00;99.90;;;;;;4213482;28;19928;-63
2022/10/04 04:59:58;;;;;;;;;;;8.00;99.90;;;;;;4214380;28;19920;-62
2022/10/04 05:01:59;;;;;;;;;;;8.10;99.90;;;;;;4213496;28;19947;-62
2022/10/04 05:04:01;;;;;;;;;;;8.00;99.90;;;;;;4214533;28;19908;-63
2022/10/04 05:06:03;;;;;;;;;;;8.10;99.90;;;;;;4213263;28;19908;-62
2022/10/04 05:08:05;;;;;;;;;;;8.20;99.90;;;;;;4214647;28;19912;-63
2022/10/04 05:10:35;;;;;;;;;;;8.20;99.90;;;;;;4213383;28;20043;-62
2022/10/04 05:12:36;;;;;;;;;;;8.20;99.90;;;;;;4201344;28;19916;-62
2022/10/04 05:14:38;;;;;;;;;;;8.40;99.90;;;;;;4213188;28;19912;-62
2022/10/04 05:16:52;;;;;;;;;;;8.50;99.90;;;;;;4213800;28;19916;-63
2022/10/04 05:18:55;;;;;;;;;;;8.70;99.90;;;;;;4212838;28;19916;-62
2022/10/04 05:20:58;;;;;;;;;;;8.90;99.90;;;;;;4220747;28;19965;-63
2022/10/04 05:22:59;;;;;;;;;;;9.20;99.90;;;;;;4220284;28;19916;-64
2022/10/04 05:25:09;;;;;;;;;;;9.60;99.90;;;;;;4226172;28;20363;-63
2022/10/04 05:27:25;;;;;;;;;;;9.90;99.90;;;;;;4235617;27;19912;-66
2022/10/04 05:29:27;;;;;;;;;;;10.30;99.90;;;;;;4229794;28;19916;-62
2022/10/04 05:31:34;;;;;;;;;;;10.90;99.90;;;;;;4228611;27;20646;-64
2022/10/04 05:33:39;;;;;;;;;;;11.50;99.90;;;;;;4227921;28;20348;-63
2022/10/04 05:35:56;;;;;;;;;;;12.00;99.90;;;;;;4217531;28;19908;-62
2022/10/04 05:37:57;;;;;;;;;;;12.50;99.90;;;;;;4213082;28;20790;-63
2022/10/04 05:40:18;;;;;;;;;;;13.00;99.90;;;;;;4218000;28;19915;-61
2022/10/04 05:42:36;;;;;;;;;;;13.40;99.90;;;;;;4215655;28;19908;-63
2022/10/04 05:44:56;;;;;;;;;;;13.90;99.90;;;;;;4229433;28;19957;-62
2022/10/04 05:47:01;;;;;;;;;;;14.30;99.90;;;;;;4229878;27;19916;-62
2022/10/04 05:49:11;;;;;;;;;;;14.80;99.90;;;;;;4229174;28;19961;-62
2022/10/04 05:51:19;;;;;;;;;;;15.40;99.90;;;;;;4229935;28;19912;-63
2022/10/04 05:53:31;;;;;;;;;;;15.80;99.90;;;;;;4229311;28;19961;-62
2022/10/04 05:55:42;;;;;;;;;;;16.20;99.90;;;;;;4230562;27;19969;-65
2022/10/04 05:57:43;;;;;;;;;;;16.50;99.90;;;;;;4228510;28;20271;-62
2022/10/04 05:59:47;;;;;;;;;;;16.60;99.90;;;;;;4228694;28;19969;-62
2022/10/04 06:02:03;;;;;;;;;;;16.80;99.90;;;;;;4229334;28;20288;-60
2022/10/04 06:04:18;;;;;;;;;;;16.30;99.90;;;;;;4229461;28;20375;-61
2022/10/04 06:06:25;;;;;;;;;;;15.70;99.90;;;;;;4229742;27;19912;-63
2022/10/04 06:08:35;;;;;;;;;;;14.70;99.90;;;;;;4226827;28;19916;-62
2022/10/04 06:10:43;;;;;;;;;;;14.00;99.90;;;;;;4229018;28;19957;-61
2022/10/04 06:12:49;;;;;;;;;;;13.80;99.90;;;;;;4229937;28;19912;-60
2022/10/04 06:14:50;;;;;;;;;;;13.40;99.90;;;;;;4229183;28;19953;-64
2022/10/04 06:17:10;;;;;;;;;;;13.40;99.90;;;;;;4229283;28;19916;-61
2022/10/04 06:19:17;;;;;;;;;;;13.30;99.90;;;;;;4228924;28;20376;-61
2022/10/04 06:21:18;;;;;;;;;;;13.00;99.90;;;;;;4229523;28;20662;-62
2022/10/04 06:23:20;;;;;;;;;;;13.10;99.90;;;;;;4229189;28;20019;-60
2022/10/04 06:25:30;;;;;;;;;;;13.20;99.90;;;;;;4228936;28;19919;-61
2022/10/04 06:27:39;;;;;;;;;;;13.10;99.90;;;;;;4227611;28;19912;-61
2022/10/04 06:29:49;;;;;;;;;;;12.70;99.90;;;;;;4228589;28;19908;-62
2022/10/04 06:31:50;;;;;;;;;;;12.50;99.90;;;;;;4229087;28;19961;-62
2022/10/04 06:33:54;;;;;;;;;;;13.10;99.90;;;;;;4228580;28;20260;-62
2022/10/04 06:35:58;;;;;;;;;;;13.50;99.90;;;;;;4229211;28;19933;-62
2022/10/04 06:38:10;;;;;;;;;;;14.10;99.90;;;;;;4228311;28;20434;-64
2022/10/04 06:40:25;;;;;;;;;;;14.60;99.90;;;;;;4227501;28;20843;-62
2022/10/04 06:42:36;;;;;;;;;;;14.90;99.90;;;;;;4228762;27;20283;-63
2022/10/04 06:45:00;;;;;;;;;;;15.00;99.90;;;;;;4228890;28;20330;-61
2022/10/04 06:47:10;;;;;;;;;;;15.30;99.90;;;;;;4181617;28;19919;-61
2022/10/04 06:49:30;;;;;;;;;;;15.50;99.90;;;;;;4212031;28;19916;-61
2022/10/04 06:51:38;;;;;;;;;;;15.50;99.90;;;;;;4215916;28;20348;-61
2022/10/04 06:53:45;;;;;;;;;;;15.30;99.90;;;;;;4211918;28;19937;-61
2022/10/04 06:56:09;;;;;;;;;;;15.40;99.90;;;;;;4228623;28;19961;-61
2022/10/04 06:58:11;;;;;;;;;;;15.60;99.90;;;;;;4217366;28;19919;-61
2022/10/04 07:00:14;;;;;;;;;;;15.30;99.90;;;;;;4227690;28;20364;-60
2022/10/04 07:02:21;;;;;;;;;;;14.90;99.90;;;;;;4227711;28;19912;-61
2022/10/04 07:04:22;;;;;;;;;;;14.60;99.90;;;;;;4228338;28;20401;-61
2022/10/04 07:06:26;;;;;;;;;;;14.40;99.90;;;;;;4228344;28;19920;-60
2022/10/04 07:08:37;;;;;;;;;;;14.40;99.90;;;;;;4227651;28;20341;-60
2022/10/04 07:10:43;;;;;;;;;;;14.10;99.90;;;;;;4227072;28;19969;-60
2022/10/04 07:12:52;;;;;;;;;;;13.90;99.90;;;;;;4227799;28;20546;-61
2022/10/04 07:14:57;;;;;;;;;;;13.80;99.90;;;;;;4228534;28;19981;-61
2022/10/04 07:17:02;;;;;;;;;;;13.70;99.90;;;;;;4210854;28;19917;-61
2022/10/04 07:19:16;;;;;;;;;;;13.80;99.90;;;;;;4211899;28;19917;-61
2022/10/04 07:21:17;;;;;;;;;;;13.80;99.90;;;;;;4222967;28;19912;-62
2022/10/04 07:23:25;;;;;;;;;;;13.60;99.90;;;;;;4228682;28;19911;-61
2022/10/04 07:25:29;;;;;;;;;;;13.40;99.90;;;;;;4227491;28;19965;-61
2022/10/04 07:27:35;;;;;;;;;;;13.40;99.90;;;;;;4227757;28;19916;-62
2022/10/04 07:29:39;;;;;;;;;;;13.30;99.90;;;;;;4227654;28;19957;-62
2022/10/04 07:31:41;;;;;;;;;;;13.20;99.90;;;;;;4228939;28;19916;-63
2022/10/04 07:33:43;;;;;;;;;;;13.10;99.90;;;;;;4227324;28;19937;-62
2022/10/04 07:35:50;;;;;;;;;;;13.00;99.90;;;;;;4228858;28;19964;-61
2022/10/04 07:38:07;;;;;;;;;;;12.80;99.90;;;;;;4227526;28;20392;-61
2022/10/04 07:40:16;;;;;;;;;;;12.80;99.90;;;;;;4228807;28;20044;-61
2022/10/04 07:42:26;;;;;;;;;;;12.70;99.90;;;;;;4221011;28;20450;-62
2022/10/04 07:44:27;;;;;;;;;;;12.70;99.90;;;;;;4220247;28;19923;-61
2022/10/04 07:46:40;;;;;;;;;;;12.70;99.90;;;;;;4223577;28;20360;-61
2022/10/04 07:48:42;;;;;;;;;;;12.60;99.90;;;;;;4228617;28;19957;-61
2022/10/04 07:51:02;;;;;;;;;;;12.50;99.90;;;;;;4225978;28;20225;-61
2022/10/04 07:53:15;;;;;;;;;;;12.40;99.90;;;;;;4228165;28;19912;-63
2022/10/04 07:55:25;;;;;;;;;;;12.40;99.90;;;;;;4225090;28;19972;-61
2022/10/04 07:57:38;;;;;;;;;;;12.50;99.90;;;;;;4228142;28;20319;-62
2022/10/04 07:59:39;;;;;;;;;;;12.60;99.90;;;;;;4226000;28;19927;-61
2022/10/04 08:01:42;;;;;;;;;;;12.60;99.90;;;;;;4228466;28;19908;-61
2022/10/04 08:04:02;;;;;;;;;;;12.70;99.90;;;;;;4225542;28;20318;-61
2022/10/04 08:06:18;;;;;;;;;;;12.70;99.90;;;;;;4226937;28;19938;-63
2022/10/04 08:08:19;;;;;;;;;;;12.90;99.90;;;;;;4227167;28;20349;-61
2022/10/04 08:10:33;;;;;;;;;;;13.00;99.90;;;;;;4227003;28;20018;-61
2022/10/04 08:12:52;;;;;;;;;;;13.00;99.90;;;;;;4226682;28;19964;-62
2022/10/04 08:15:12;;;;;;;;;;;13.00;99.90;;;;;;4227639;28;19912;-61
2022/10/04 08:17:33;;;;;;;;;;;13.10;99.90;;;;;;4226632;28;19919;-61
2022/10/04 08:20:00;;;;;;;;;;;13.30;99.90;;;;;;4186322;28;20346;-61
2022/10/04 08:22:04;;;;;;;;;;;13.50;99.90;;;;;;4220219;28;20020;-62
2022/10/04 08:24:05;;;;;;;;;;;13.50;99.90;;;;;;4226560;28;19965;-63
2022/10/04 08:26:12;;;;;;;;;;;13.70;99.90;;;;;;4223761;28;19923;-62
2022/10/04 08:30:59;;;;;;;;;;;13.70;99.90;;;;;;4225960;28;19965;-62
2022/10/04 08:33:11;;;;;;;;;;;13.80;99.90;;;;;;4226409;28;19912;-61
2022/10/04 08:35:18;;;;;;;;;;;13.60;99.90;;;;;;4226612;28;19924;-60
2022/10/04 08:37:19;;;;;;;;;;;13.50;99.90;;;;;;4210021;28;20341;-61
2022/10/04 08:39:39;;;;;;;;;;;13.60;99.90;;;;;;4221680;28;19912;-61
2022/10/04 08:41:40;;;;;;;;;;;13.60;99.90;;;;;;4224410;28;19976;-61
2022/10/04 08:43:59;;;;;;;;;;;13.70;99.90;;;;;;4226027;28;19930;-63
2022/10/04 08:46:12;;;;;;;;;;;13.70;99.90;;;;;;4226092;28;19961;-63
2022/10/04 08:48:17;;;;;;;;;;;13.60;99.90;;;;;;4213676;28;20326;-63
2022/10/04 08:50:23;;;;;;;;;;;13.70;99.90;;;;;;4227049;28;20322;-63
2022/10/04 08:52:44;;;;;;;;;;;13.70;99.90;;;;;;4227126;28;20388;-61
2022/10/04 08:55:04;;;;;;;;;;;13.70;99.90;;;;;;4225447;28;20210;-62
2022/10/04 08:57:17;;;;;;;;;;;13.60;99.90;;;;;;4227368;28;20536;-60
2022/10/04 08:59:36;;;;;;;;;;;13.70;99.90;;;;;;4226111;28;19969;-61
2022/10/04 09:01:45;;;;;;;;;;;13.90;99.90;;;;;;4210706;28;19916;-62
2022/10/04 09:04:04;;;;;;;;;;;13.90;99.90;;;;;;4225488;28;20297;-62
2022/10/04 09:06:11;;;;;;;;;;;14.10;99.90;;;;;;4225869;28;20457;-61
2022/10/04 09:08:18;;;;;;;;;;;14.40;99.90;;;;;;4224929;28;20652;-61
2022/10/04 09:10:39;;;;;;;;;;;14.50;99.90;;;;;;4227025;28;19911;-62
2022/10/04 09:12:55;;;;;;;;;;;14.50;99.90;;;;;;4229486;28;20701;-61
2022/10/04 09:15:06;;;;;;;;;;;14.50;99.90;;;;;;4230425;28;20437;-61
2022/10/04 09:17:21;;;;;;;;;;;14.60;99.90;;;;;;4227592;28;19969;-61
2022/10/04 09:19:32;;;;;;;;;;;14.60;99.90;;;;;;4229968;28;19907;-61
2022/10/04 09:21:45;;;;;;;;;;;14.50;99.90;;;;;;4225217;27;19957;-62
2022/10/04 09:24:19;;;;;;;;;;;14.30;99.90;;;;;;4223715;28;19908;-61
2022/10/04 09:26:38;;;;;;;;;;;14.10;99.90;;;;;;4178710;28;19973;-63
2022/10/04 09:29:04;;;;;;;;;;;14.10;99.90;;;;;;4228182;28;19920;-61
2022/10/04 09:31:23;;;;;;;;;;;14.10;99.90;;;;;;4192782;28;19982;-63
2022/10/04 09:33:24;;;;;;;;;;;14.30;99.90;;;;;;4225435;28;19920;-64
2022/10/04 09:35:26;;;;;;;;;;;14.40;99.90;;;;;;4221445;27;20355;-62
2022/10/04 09:37:33;;;;;;;;;;;14.30;99.90;;;;;;4223406;28;19920;-63
2022/10/04 09:39:49;;;;;;;;;;;14.40;99.90;;;;;;4219457;28;20662;-63
2022/10/04 09:42:08;;;;;;;;;;;14.40;99.90;;;;;;4219947;28;19992;-61
2022/10/04 09:44:28;;;;;;;;;;;14.40;99.90;;;;;;4221333;28;19960;-61
2022/10/04 09:46:29;;;;;;;;;;;14.30;99.90;;;;;;4222399;28;19945;-62
2022/10/04 09:48:42;;;;;;;;;;;14.40;99.90;;;;;;4219506;28;21551;-64
2022/10/04 09:50:50;;;;;;;;;;;14.40;99.90;;;;;;4218534;28;19961;-65
2022/10/04 09:52:55;;;;;;;;;;;14.40;99.90;;;;;;4220379;28;19920;-67
2022/10/04 09:54:56;;;;;;;;;;;14.40;99.90;;;;;;4223323;28;20322;-65
2022/10/04 09:56:58;;;;;;;;;;;14.40;99.90;;;;;;4224510;28;19915;-64
2022/10/04 09:59:08;;;;;;;;;;;14.40;99.90;;;;;;4212961;28;19919;-62
2022/10/04 10:01:15;;;;;;;;;;;14.30;99.90;;;;;;4219764;28;19916;-63
2022/10/04 10:03:19;;;;;;;;;;;14.20;99.90;;;;;;4223490;28;19965;-63
2022/10/04 10:05:20;;;;;;;;;;;14.10;99.90;;;;;;4223913;28;20295;-65
2022/10/04 10:07:21;;;;;;;;;;;14.10;99.90;;;;;;4230011;28;19915;-63
2022/10/04 10:13:38;;;;;;;;;;;14.10;99.90;;;;;;4229135;28;20390;-65
2022/10/04 10:14:40;;;;;;;;;;;14.20;99.90;;;;;;4225910;28;19980;-62
2022/10/04 10:16:59;;;;;;;;;;;14.30;99.90;;;;;;4222557;28;19911;-60
2022/10/04 10:19:06;;;;;;;;;;;14.50;99.90;;;;;;4225485;28;19916;-61
2022/10/04 10:21:18;;;;;;;;;;;14.60;99.90;;;;;;4224992;28;19961;-62
2022/10/04 10:23:31;;;;;;;;;;;14.60;99.90;;;;;;4221467;27;19911;-62
2022/10/04 10:25:46;;;;;;;;;;;14.40;99.90;;;;;;4224519;28;19916;-60
2022/10/04 10:28:06;;;;;;;;;;;14.30;99.90;;;;;;4224605;28;19927;-61
2022/10/04 10:30:19;;;;;;;;;;;14.10;99.90;;;;;;4223524;28;19912;-63
2022/10/04 10:32:32;;;;;;;;;;;13.70;99.90;;;;;;4221930;28;19920;-60
2022/10/04 10:34:42;;;;;;;;;;;13.60;99.90;;;;;;4224865;28;20248;-64
2022/10/04 10:36:43;;;;;;;;;;;13.40;99.90;;;;;;4226276;28;20297;-62
2022/10/04 10:38:53;;;;;;;;;;;13.20;99.90;;;;;;4225704;28;19922;-60
2022/10/04 10:41:14;;;;;;;;;;;13.30;99.90;;;;;;4225337;28;20302;-61
2022/10/04 10:43:35;;;;;;;;;;;13.40;99.90;;;;;;4227536;28;19953;-61
2022/10/04 10:45:55;;;;;;;;;;;13.40;99.90;;;;;;4221041;28;19937;-58
2022/10/04 10:48:03;;;;;;;;;;;13.40;99.90;;;;;;4221881;28;19912;-64
2022/10/04 10:50:19;;;;;;;;;;;13.40;99.90;;;;;;4226553;28;20318;-61
2022/10/04 10:52:39;;;;;;;;;;;13.40;99.90;;;;;;4215148;28;20892;-62
2022/10/04 10:54:58;;;;;;;;;;;13.50;99.90;;;;;;4202791;28;20900;-61
2022/10/04 10:57:32;;;;;;;;;;;13.60;99.90;;;;;;4194076;28;19912;-60
2022/10/04 10:59:36;;;;;;;;;;;13.60;99.90;;;;;;4180998;28;19966;-62
2022/10/04 11:01:55;;;;;;;;;;;13.80;99.90;;;;;;4197418;28;19917;-61
2022/10/04 11:04:10;;;;;;;;;;;14.00;99.90;;;;;;4218379;28;20425;-61
2022/10/04 11:06:28;;;;;;;;;;;14.20;99.90;;;;;;4222316;28;19915;-63
2022/10/04 11:08:35;;;;;;;;;;;14.30;99.90;;;;;;4218807;28;19953;-61
2022/10/04 11:10:40;;;;;;;;;;;14.40;99.90;;;;;;4226488;27;19985;-60
2022/10/04 11:13:07;;;;;;;;;;;14.40;99.90;;;;;;4225229;28;19961;-62
2022/10/04 11:15:28;;;;;;;;;;;14.40;99.90;;;;;;4199550;28;19912;-62
2022/10/04 11:17:32;;;;;;;;;;;14.40;99.90;;;;;;4214546;28;20318;-63
2022/10/04 11:19:42;;;;;;;;;;;14.20;99.90;;;;;;4227048;28;19934;-61
2022/10/04 11:21:43;;;;;;;;;;;14.10;99.90;;;;;;4227262;28;19975;-62
2022/10/04 11:24:05;;;;;;;;;;;14.10;99.90;;;;;;4226151;28;19966;-61
2022/10/04 11:26:38;;;;;;;;;;;14.00;99.90;;;;;;4225383;28;20304;-61
2022/10/04 11:28:45;;;;;;;;;;;14.00;99.90;;;;;;4187044;28;20368;-60
2022/10/04 11:31:07;;;;;;;;;;;13.90;99.90;;;;;;4225349;28;19960;-64
2022/10/04 11:33:10;;;;;;;;;;;13.90;99.90;;;;;;4224388;28;19983;-62
2022/10/04 11:35:26;;;;;;;;;;;13.90;99.90;;;;;;4223832;28;19912;-61
2022/10/04 11:37:46;;;;;;;;;;;13.80;99.90;;;;;;4225850;28;20285;-61
2022/10/04 11:40:05;;;;;;;;;;;13.90;99.90;;;;;;4224150;28;20265;-61
2022/10/04 11:42:24;;;;;;;;;;;13.90;99.90;;;;;;4227275;28;19969;-61
2022/10/04 11:44:31;;;;;;;;;;;13.90;99.90;;;;;;4224512;28;19912;-62
2022/10/04 11:46:38;;;;;;;;;;;14.00;99.90;;;;;;4226877;28;19908;-61
2022/10/04 11:48:48;;;;;;;;;;;14.10;99.90;;;;;;4227021;28;19919;-61
2022/10/04 11:50:52;;;;;;;;;;;14.20;99.90;;;;;;4227139;28;20016;-60
2022/10/04 11:53:08;;;;;;;;;;;14.30;99.90;;;;;;4224176;28;20603;-61
2022/10/04 11:55:09;;;;;;;;;;;14.30;99.90;;;;;;4227737;28;19958;-60
2022/10/04 11:57:30;;;;;;;;;;;14.40;99.90;;;;;;4225802;28;20283;-62
2022/10/04 11:59:31;;;;;;;;;;;14.40;99.90;;;;;;4218520;28;19925;-61
2022/10/04 12:01:50;;;;;;;;;;;14.30;99.90;;;;;;4226727;28;19918;-60
2022/10/04 12:04:10;;;;;;;;;;;14.20;99.90;;;;;;4226509;28;19908;-62
2022/10/04 12:06:13;;;;;;;;;;;14.20;99.90;;;;;;4222804;28;20281;-63
2022/10/04 12:08:29;;;;;;;;;;;14.10;99.90;;;;;;4224495;28;19941;-62
2022/10/04 12:10:35;;;;;;;;;;;14.10;99.90;;;;;;4225507;28;19911;-61
2022/10/04 12:12:42;;;;;;;;;;;14.00;99.90;;;;;;4227216;28;20289;-61
2022/10/04 12:14:56;;;;;;;;;;;14.10;99.90;;;;;;4222147;28;19908;-62
2022/10/04 12:17:18;;;;;;;;;;;14.10;99.90;;;;;;4225692;28;20310;-60
2022/10/04 12:19:26;;;;;;;;;;;14.20;99.90;;;;;;4209742;28;20376;-61
2022/10/04 12:21:27;;;;;;;;;;;14.30;99.90;;;;;;4218958;28;20253;-61
2022/10/04 12:23:48;;;;;;;;;;;14.30;99.90;;;;;;4221292;28;19911;-63
2022/10/04 12:25:52;;;;;;;;;;;14.30;99.90;;;;;;4222911;28;20383;-63
2022/10/04 12:28:11;;;;;;;;;;;14.30;99.90;;;;;;4224739;28;19919;-61
2022/10/04 12:30:25;;;;;;;;;;;14.30;99.90;;;;;;4221494;28;19915;-61
2022/10/04 12:32:41;;;;;;;;;;;14.20;99.90;;;;;;4221520;28;19964;-61
2022/10/04 12:34:51;;;;;;;;;;;14.20;99.90;;;;;;4215618;28;19911;-61
2022/10/04 12:37:01;;;;;;;;;;;14.20;99.90;;;;;;4225267;28;19908;-59